createdAt,value
2019-05-02T00:01:28.341Z,19.37
2019-05-02T00:03:58.588Z,20.27
2019-05-02T00:06:30.150Z,18.52
2019-05-02T00:09:03.992Z,19.37
2019-05-02T00:11:33.668Z,18.32
2019-05-02T00:14:04.210Z,20.50
2019-05-02T00:16:34.231Z,19.40
2019-05-02T00:19:04.317Z,20.27
2019-05-02T00:21:38.205Z,20.62
2019-05-02T00:24:07.601Z,21.48
2019-05-02T00:26:37.697Z,20.82
2019-05-02T00:29:07.611Z,21.30
2019-05-02T00:31:41.947Z,21.93
2019-05-02T00:34:09.318Z,21.30
2019-05-02T00:36:39.371Z,21.60
2019-05-02T00:39:13.673Z,20.87
2019-05-02T00:41:40.911Z,21.43
2019-05-02T00:44:11.242Z,21.62
2019-05-02T00:46:41.954Z,21.43
2019-05-02T00:49:12.205Z,22.30
2019-05-02T00:51:41.887Z,21.10
2019-05-02T00:54:11.539Z,22.00
2019-05-02T00:56:44.151Z,21.10
2019-05-02T00:59:12.849Z,21.07
2019-05-02T01:02:05.299Z,20.97
2019-05-02T01:04:37.599Z,21.47
2019-05-02T01:07:07.893Z,21.50
2019-05-02T01:09:42.192Z,20.35
2019-05-02T01:12:10.010Z,20.90
2019-05-02T01:14:39.739Z,20.43
2019-05-02T01:17:09.412Z,22.33
2019-05-02T01:19:39.060Z,22.50
2019-05-02T01:22:10.425Z,22.30
2019-05-02T01:24:41.679Z,23.40
2019-05-02T01:27:36.046Z,19.60
2019-05-02T01:30:21.132Z,21.40
2019-05-02T01:33:06.357Z,20.30
2019-05-02T01:35:40.533Z,20.47
2019-05-02T01:38:26.391Z,21.13
2019-05-02T01:40:54.895Z,20.57
2019-05-02T01:43:26.948Z,20.60
2019-05-02T01:45:56.667Z,20.87
2019-05-02T01:48:26.519Z,21.30
2019-05-02T01:50:56.621Z,20.67
2019-05-02T01:53:29.226Z,19.13
2019-05-02T01:55:59.349Z,20.97
2019-05-02T01:58:29.114Z,18.70
2019-05-02T02:00:59.095Z,19.75
2019-05-02T02:03:29.743Z,18.70
2019-05-02T02:06:02.916Z,19.00
2019-05-02T02:08:33.814Z,19.30
2019-05-02T02:11:03.631Z,19.13
2019-05-02T02:13:36.703Z,18.97
2019-05-02T02:16:05.995Z,18.13
2019-05-02T02:18:40.433Z,18.57
2019-05-02T02:21:20.150Z,18.23
2019-05-02T02:23:59.038Z,17.93
2019-05-02T02:26:28.848Z,18.23
2019-05-02T02:29:03.011Z,19.33
2019-05-02T02:31:31.099Z,18.53
2019-05-02T02:34:01.040Z,19.50
2019-05-02T02:36:34.189Z,18.67
2019-05-02T02:39:07.060Z,18.57
2019-05-02T02:41:34.705Z,18.75
2019-05-02T02:44:11.812Z,18.70
2019-05-02T02:46:43.523Z,18.10
2019-05-02T02:49:21.710Z,19.87
2019-05-02T02:51:44.753Z,17.97
2019-05-02T02:54:14.434Z,19.57
2019-05-02T02:56:44.165Z,19.27
2019-05-02T02:59:19.473Z,21.33
2019-05-02T03:01:45.704Z,18.47
2019-05-02T03:04:15.377Z,18.73
2019-05-02T03:06:47.142Z,19.87
2019-05-02T03:09:20.090Z,19.17
2019-05-02T03:12:07.203Z,19.37
2019-05-02T03:14:41.004Z,20.07
2019-05-02T03:17:11.676Z,20.48
2019-05-02T03:19:41.362Z,19.87
2019-05-02T03:22:11.080Z,20.00
2019-05-02T03:24:44.231Z,20.30
2019-05-02T03:27:12.677Z,20.13
2019-05-02T03:29:44.467Z,21.30
2019-05-02T03:32:30.098Z,21.23
2019-05-02T03:34:52.289Z,20.02
2019-05-02T03:37:18.239Z,20.30
2019-05-02T03:39:56.515Z,20.12
2019-05-02T03:42:19.861Z,20.93
2019-05-02T03:44:56.985Z,20.67
2019-05-02T03:47:20.976Z,20.67
2019-05-02T03:49:52.366Z,20.77
2019-05-02T03:52:22.240Z,19.70
2019-05-02T03:54:52.719Z,20.80
2019-05-02T03:57:31.994Z,21.23
2019-05-02T03:59:54.145Z,22.20
2019-05-02T04:02:24.344Z,21.60
2019-05-02T04:05:00.000Z,22.63
2019-05-02T04:07:25.615Z,22.70
2019-05-02T04:09:55.785Z,20.62
2019-05-02T04:12:26.055Z,22.40
2019-05-02T04:14:57.174Z,21.83
2019-05-02T04:17:28.636Z,22.27
2019-05-02T04:19:59.269Z,22.30
2019-05-02T04:22:29.814Z,21.93
2019-05-02T04:25:00.778Z,22.60
2019-05-02T04:27:34.176Z,23.30
2019-05-02T04:30:09.735Z,21.87
2019-05-02T04:32:33.795Z,22.25
2019-05-02T04:35:03.865Z,21.48
2019-05-02T04:37:34.342Z,21.87
2019-05-02T04:40:09.131Z,23.50
2019-05-02T04:42:39.320Z,23.10
2019-05-02T04:45:21.718Z,24.12
2019-05-02T04:47:42.606Z,24.60
2019-05-02T04:50:17.885Z,23.03
2019-05-02T04:52:48.231Z,23.83
2019-05-02T04:55:24.758Z,24.27
2019-05-02T04:57:50.508Z,25.37
2019-05-02T05:00:20.194Z,24.17
2019-05-02T05:02:53.143Z,24.23
2019-05-02T05:05:25.429Z,21.10
2019-05-02T05:07:53.814Z,24.43
2019-05-02T05:10:23.512Z,24.50
2019-05-02T05:12:53.198Z,25.03
2019-05-02T05:15:37.212Z,24.82
2019-05-02T05:17:54.474Z,22.02
2019-05-02T05:20:24.392Z,21.70
2019-05-02T05:22:54.051Z,25.17
2019-05-02T05:25:30.022Z,26.27
2019-05-02T05:28:05.713Z,26.07
2019-05-02T05:30:32.065Z,26.65
2019-05-02T05:33:01.719Z,27.83
2019-05-02T05:35:31.392Z,23.67
2019-05-02T05:38:01.053Z,27.00
2019-05-02T05:40:32.151Z,26.17
2019-05-02T05:43:07.417Z,26.70
2019-05-02T05:45:33.334Z,25.97
2019-05-02T05:48:02.992Z,25.00
2019-05-02T05:50:37.675Z,28.40
2019-05-02T05:53:04.421Z,24.63
2019-05-02T05:55:34.344Z,28.27
2019-05-02T05:58:12.334Z,26.33
2019-05-02T06:00:35.466Z,24.77
2019-05-02T06:03:13.049Z,21.27
2019-05-02T06:05:38.526Z,28.10
2019-05-02T06:08:08.229Z,28.17
2019-05-02T06:10:38.948Z,28.47
2019-05-02T06:13:10.799Z,25.10
2019-05-02T06:15:40.898Z,29.60
2019-05-02T06:18:10.624Z,29.07
2019-05-02T06:20:40.297Z,22.70
2019-05-02T06:23:09.985Z,25.50
2019-05-02T06:25:42.497Z,29.50
2019-05-02T06:28:11.251Z,27.40
2019-05-02T06:30:40.955Z,28.33
2019-05-02T06:33:10.595Z,17.12
2019-05-02T06:35:40.627Z,26.00
2019-05-02T06:38:10.285Z,17.40
2019-05-02T06:40:44.747Z,23.83
2019-05-02T06:43:11.494Z,27.00
2019-05-02T06:45:41.168Z,29.83
2019-05-02T06:48:17.167Z,29.23
2019-05-02T06:50:42.331Z,17.63
2019-05-02T06:53:11.999Z,27.52
2019-05-02T06:55:41.711Z,29.87
2019-05-02T06:58:11.371Z,27.17
2019-05-02T07:00:56.498Z,28.57
2019-05-02T07:03:12.469Z,26.37
2019-05-02T07:05:42.140Z,22.70
2019-05-02T07:08:14.022Z,26.67
2019-05-02T07:10:45.164Z,30.00
2019-05-02T07:13:15.514Z,24.33
2019-05-02T07:16:03.390Z,24.83
2019-05-02T07:18:36.505Z,28.03
2019-05-02T07:21:06.747Z,18.67
2019-05-02T07:23:36.411Z,25.23
2019-05-02T07:26:06.165Z,26.27
2019-05-02T07:28:40.342Z,20.53
2019-05-02T07:31:12.113Z,16.47
2019-05-02T07:33:39.066Z,28.15
2019-05-02T07:36:08.821Z,25.27
2019-05-02T07:38:38.562Z,28.13
2019-05-02T07:41:08.303Z,23.50
2019-05-02T07:43:38.299Z,23.13
2019-05-02T07:46:08.231Z,24.67
2019-05-02T07:48:37.897Z,25.17
2019-05-02T07:51:07.637Z,26.30
2019-05-02T07:53:37.312Z,17.65
2019-05-02T07:56:07.046Z,24.20
2019-05-02T07:58:37.976Z,22.90
2019-05-02T08:01:13.306Z,27.20
2019-05-02T08:03:39.618Z,23.47
2019-05-02T08:06:09.292Z,26.30
2019-05-02T08:08:38.966Z,25.97
2019-05-02T08:11:08.701Z,21.57
2019-05-02T08:13:38.382Z,26.42
2019-05-02T08:16:08.042Z,26.00
2019-05-02T08:18:37.716Z,24.97
2019-05-02T08:21:07.720Z,21.65
2019-05-02T08:23:37.394Z,25.63
2019-05-02T08:26:07.932Z,20.80
2019-05-02T08:28:51.973Z,25.48
2019-05-02T08:31:20.946Z,25.03
2019-05-02T08:33:50.363Z,23.43
2019-05-02T08:36:20.273Z,22.13
2019-05-02T08:38:53.571Z,21.60
2019-05-02T08:41:21.542Z,23.73
2019-05-02T08:43:51.496Z,23.43
2019-05-02T08:46:21.239Z,19.43
2019-05-02T08:48:51.980Z,17.67
2019-05-02T08:51:21.653Z,21.43
2019-05-02T08:53:52.190Z,24.43
2019-05-02T08:56:22.917Z,22.10
2019-05-02T08:58:52.536Z,24.23
2019-05-02T09:01:33.990Z,23.33
2019-05-02T09:03:56.750Z,24.80
2019-05-02T09:06:25.343Z,22.73
2019-05-02T09:08:55.021Z,22.83
2019-05-02T09:11:25.040Z,22.07
2019-05-02T09:13:54.723Z,13.53
2019-05-02T09:16:28.642Z,21.37
2019-05-02T09:18:56.282Z,18.97
2019-05-02T09:21:26.602Z,22.80
2019-05-02T09:23:57.321Z,20.00
2019-05-02T09:26:37.784Z,21.63
2019-05-02T09:29:01.633Z,22.27
2019-05-02T09:31:31.853Z,19.67
2019-05-02T09:34:02.729Z,15.87
2019-05-02T09:36:33.742Z,20.48
2019-05-02T09:39:05.108Z,23.47
2019-05-02T09:41:36.346Z,22.27
2019-05-02T09:44:08.972Z,23.02
2019-05-02T09:46:39.466Z,23.00
2019-05-02T09:49:13.819Z,22.97
2019-05-02T09:51:42.342Z,22.22
2019-05-02T09:54:12.069Z,21.10
2019-05-02T09:56:43.151Z,21.27
2019-05-02T09:59:26.841Z,23.33
2019-05-02T10:01:44.592Z,13.50
2019-05-02T10:04:14.520Z,14.00
2019-05-02T10:06:44.175Z,21.23
2019-05-02T10:09:13.862Z,20.00
2019-05-02T10:11:43.527Z,21.87
2019-05-02T10:14:13.590Z,14.27
2019-05-02T10:16:43.582Z,17.53
2019-05-02T10:19:13.635Z,10.27
2019-05-02T10:21:46.992Z,17.40
2019-05-02T10:24:14.989Z,19.30
2019-05-02T10:26:44.718Z,20.15
2019-05-02T10:29:14.398Z,20.50
2019-05-02T10:31:44.173Z,19.03
2019-05-02T10:34:17.511Z,20.45
2019-05-02T10:36:45.580Z,18.42
2019-05-02T10:39:15.973Z,17.10
2019-05-02T10:41:46.120Z,18.27
2019-05-02T10:44:16.128Z,17.43
2019-05-02T10:46:55.258Z,16.17
2019-05-02T10:49:33.035Z,17.05
2019-05-02T10:52:02.797Z,16.40
2019-05-02T10:54:36.138Z,17.02
2019-05-02T10:57:04.591Z,17.00
2019-05-02T10:59:34.270Z,16.10
2019-05-02T11:02:24.185Z,15.13
2019-05-02T11:04:57.917Z,15.10
2019-05-02T11:07:27.588Z,17.17
2019-05-02T11:10:02.349Z,15.47
2019-05-02T11:12:44.444Z,15.53
2019-05-02T11:15:26.877Z,14.37
2019-05-02T11:17:56.886Z,15.13
2019-05-02T11:20:26.992Z,13.47
2019-05-02T11:22:56.656Z,14.40
2019-05-02T11:25:26.325Z,13.53
2019-05-02T11:27:57.293Z,13.93
2019-05-02T11:30:27.375Z,16.17
2019-05-02T11:32:57.201Z,14.37
2019-05-02T11:35:27.197Z,12.67
2019-05-02T11:37:56.858Z,15.83
2019-05-02T11:40:26.539Z,17.27
2019-05-02T11:42:57.325Z,14.20
2019-05-02T11:45:27.845Z,12.75
2019-05-02T11:48:02.834Z,15.90
2019-05-02T11:50:31.880Z,15.00
2019-05-02T11:53:00.247Z,15.57
2019-05-02T11:55:31.807Z,17.40
2019-05-02T11:58:07.802Z,16.17
2019-05-02T12:00:33.657Z,15.20
2019-05-02T12:03:35.462Z,14.95
2019-05-02T12:06:02.069Z,14.43
2019-05-02T12:08:31.941Z,15.03
2019-05-02T12:11:03.733Z,15.50
2019-05-02T12:13:33.980Z,16.27
2019-05-02T12:16:08.444Z,15.10
2019-05-02T12:18:38.481Z,14.77
2019-05-02T12:21:08.254Z,16.77
2019-05-02T12:23:37.905Z,14.53
2019-05-02T12:26:07.595Z,15.93
2019-05-02T12:28:37.435Z,15.97
2019-05-02T12:31:13.244Z,15.18
2019-05-02T12:33:42.716Z,15.55
2019-05-02T12:36:12.545Z,13.33
2019-05-02T12:38:42.216Z,15.83
2019-05-02T12:41:20.322Z,15.40
2019-05-02T12:43:43.334Z,11.33
2019-05-02T12:46:13.074Z,15.32
2019-05-02T12:48:43.018Z,14.77
2019-05-02T12:51:13.184Z,17.20
2019-05-02T12:53:42.866Z,15.60
2019-05-02T12:56:12.531Z,15.50
2019-05-02T12:58:42.459Z,14.93
2019-05-02T13:01:12.355Z,16.70
2019-05-02T13:03:52.901Z,15.50
2019-05-02T13:06:22.582Z,15.25
2019-05-02T13:08:52.738Z,14.70
2019-05-02T13:11:52.318Z,14.73
2019-05-02T13:14:25.413Z,14.73
2019-05-02T13:17:01.295Z,14.60
2019-05-02T13:19:37.958Z,13.67
2019-05-02T13:22:05.301Z,14.33
2019-05-02T13:24:37.920Z,13.63
2019-05-02T13:27:12.499Z,13.90
2019-05-02T13:29:42.854Z,12.83
2019-05-02T13:32:42.719Z,11.87
2019-05-02T13:35:17.681Z,11.83
2019-05-02T13:37:48.093Z,12.45
2019-05-02T13:40:24.247Z,11.93
2019-05-02T13:42:53.911Z,12.23
2019-05-02T13:45:36.447Z,11.20
2019-05-02T13:48:06.292Z,11.20
2019-05-02T13:50:36.302Z,11.37
2019-05-02T13:53:06.043Z,10.83
2019-05-02T13:55:42.697Z,10.65
2019-05-02T13:58:12.474Z,10.37
2019-05-02T14:00:46.508Z,9.70
2019-05-02T14:03:16.625Z,9.80
2019-05-02T14:05:53.287Z,8.47
2019-05-02T14:08:35.397Z,6.67
2019-05-02T14:11:21.616Z,9.17
2019-05-02T14:13:52.185Z,10.97
2019-05-02T14:16:22.302Z,9.23
2019-05-02T14:18:53.018Z,8.75
2019-05-02T14:21:23.183Z,8.87
2019-05-02T14:23:52.993Z,8.10
2019-05-02T14:26:30.380Z,9.03
2019-05-02T14:28:54.084Z,9.80
2019-05-02T14:31:23.756Z,8.73
2019-05-02T14:34:18.438Z,8.53
2019-05-02T14:36:48.343Z,9.30
2019-05-02T14:39:18.089Z,9.60
2019-05-02T14:41:47.746Z,9.70
2019-05-02T14:44:18.011Z,10.30
2019-05-02T14:46:48.970Z,9.95
2019-05-02T14:49:22.023Z,10.60
2019-05-02T14:51:52.463Z,9.77
2019-05-02T14:54:22.972Z,10.13
2019-05-02T14:57:02.010Z,10.90
2019-05-02T14:59:32.374Z,9.90
2019-05-02T15:02:07.616Z,9.88
2019-05-02T15:04:38.307Z,9.70
2019-05-02T15:07:08.976Z,9.87
2019-05-02T15:09:38.733Z,10.08
2019-05-02T15:12:14.724Z,9.60
2019-05-02T15:14:39.878Z,8.87
2019-05-02T15:17:11.976Z,8.87
2019-05-02T15:19:42.754Z,6.30
2019-05-02T15:22:12.547Z,6.95
2019-05-02T15:24:42.422Z,6.85
2019-05-02T15:27:17.516Z,5.27
2019-05-02T15:29:43.495Z,5.47
2019-05-02T15:32:37.203Z,5.70
2019-05-02T15:35:17.622Z,4.70
2019-05-02T15:37:47.420Z,4.93
2019-05-02T15:42:52.404Z,5.53
2019-05-02T15:45:23.759Z,5.13
2019-05-02T15:47:53.770Z,5.97
2019-05-02T15:50:25.465Z,6.87
2019-05-02T15:53:03.186Z,8.07
2019-05-02T15:55:32.407Z,8.27
2019-05-02T15:58:02.611Z,8.30
2019-05-02T16:00:36.507Z,8.53
2019-05-02T16:03:06.159Z,8.60
2019-05-02T16:05:36.559Z,8.83
2019-05-02T16:08:08.784Z,9.53
2019-05-02T16:10:40.066Z,10.60
2019-05-02T16:13:13.471Z,10.23
2019-05-02T16:15:42.811Z,11.63
2019-05-02T16:18:12.839Z,11.50
2019-05-02T16:21:07.026Z,10.40
2019-05-02T16:23:35.204Z,11.43
2019-05-02T16:26:05.460Z,11.43
2019-05-02T16:28:36.913Z,12.67
2019-05-02T16:31:07.114Z,11.85
2019-05-02T16:33:36.780Z,12.07
2019-05-02T16:36:06.531Z,11.23
2019-05-02T16:38:36.288Z,11.43
2019-05-02T16:41:09.886Z,11.78
2019-05-02T16:43:38.080Z,11.73
2019-05-02T16:46:11.889Z,11.50
2019-05-02T16:48:39.319Z,12.43
2019-05-02T16:51:27.700Z,12.40
2019-05-02T16:53:40.374Z,11.60
2019-05-02T16:56:11.565Z,12.50
2019-05-02T16:58:43.374Z,12.30
2019-05-02T17:01:14.891Z,12.17
2019-05-02T17:03:44.268Z,14.38
2019-05-02T17:06:16.961Z,14.45
2019-05-02T17:08:57.436Z,12.77
2019-05-02T17:11:35.901Z,12.57
2019-05-02T17:14:07.017Z,13.33
2019-05-02T17:16:35.880Z,12.23
2019-05-02T17:19:05.703Z,13.98
2019-05-02T17:21:52.370Z,12.98
2019-05-02T17:24:06.812Z,12.80
2019-05-02T17:26:36.817Z,12.60
2019-05-02T17:29:06.736Z,13.50
2019-05-02T17:31:36.485Z,13.37
2019-05-02T17:34:06.504Z,13.17
2019-05-02T17:36:36.161Z,13.13
2019-05-02T17:39:08.332Z,13.83
2019-05-02T17:41:43.997Z,13.27
2019-05-02T17:44:12.852Z,13.03
2019-05-02T17:46:42.891Z,12.90
2019-05-02T17:49:12.614Z,13.20
2019-05-02T17:52:19.889Z,13.03
2019-05-02T17:54:47.844Z,12.90
2019-05-02T17:57:17.596Z,12.63
2019-05-02T17:59:47.278Z,11.88
2019-05-02T18:02:17.220Z,12.13
2019-05-02T18:04:54.157Z,11.78
2019-05-02T18:07:19.563Z,12.20
2019-05-02T18:09:49.244Z,12.57
2019-05-02T18:12:18.916Z,11.28
2019-05-02T18:14:51.423Z,11.73
2019-05-02T18:17:22.053Z,11.80
2019-05-02T18:19:52.124Z,10.93
2019-05-02T18:22:25.911Z,12.43
2019-05-02T18:24:53.220Z,11.78
2019-05-02T18:27:22.886Z,11.30
2019-05-02T18:29:52.591Z,12.17
2019-05-02T18:32:26.018Z,12.33
2019-05-02T18:34:56.721Z,12.27
2019-05-02T18:37:25.286Z,12.13
2019-05-02T18:39:56.018Z,11.28
2019-05-02T18:42:26.689Z,12.20
2019-05-02T18:44:56.550Z,11.90
2019-05-02T18:47:26.208Z,11.03
2019-05-02T18:50:04.282Z,11.40
2019-05-02T18:52:36.328Z,10.82
2019-05-02T18:54:59.026Z,10.07
2019-05-02T18:57:29.669Z,11.10
2019-05-02T18:59:59.448Z,10.18
2019-05-02T19:02:32.769Z,11.23
2019-05-02T19:05:01.933Z,11.33
2019-05-02T19:07:35.637Z,10.47
2019-05-02T19:10:05.765Z,10.87
2019-05-02T19:12:35.671Z,10.88
2019-05-02T19:15:07.147Z,10.10
2019-05-02T19:17:39.151Z,9.40
2019-05-02T19:20:25.959Z,10.97
2019-05-02T19:22:56.991Z,9.93
2019-05-02T19:25:27.881Z,10.10
2019-05-02T19:28:04.119Z,10.70
2019-05-02T19:30:34.491Z,10.00
2019-05-02T19:33:07.872Z,10.40
2019-05-02T19:35:37.516Z,10.40
2019-05-02T19:38:07.450Z,11.03
2019-05-02T19:40:37.406Z,10.50
2019-05-02T19:43:07.794Z,10.13
2019-05-02T19:45:37.524Z,9.40
2019-05-02T19:48:07.728Z,10.50
2019-05-02T19:50:43.735Z,8.70
2019-05-02T19:53:18.128Z,9.17
2019-05-02T19:55:43.795Z,8.25
2019-05-02T19:58:13.627Z,8.47
2019-05-02T20:00:46.248Z,8.27
2019-05-02T20:03:21.568Z,7.80
2019-05-02T20:05:48.401Z,7.60
2019-05-02T20:08:22.853Z,6.60
2019-05-02T20:10:56.714Z,7.70
2019-05-02T20:13:28.237Z,7.30
2019-05-02T20:16:05.811Z,7.73
2019-05-02T20:18:42.565Z,7.97
2019-05-02T20:21:34.981Z,7.75
2019-05-02T20:24:09.122Z,7.33
2019-05-02T20:26:36.417Z,7.70
2019-05-02T20:29:06.479Z,7.80
2019-05-02T20:31:36.415Z,7.62
2019-05-02T20:34:06.228Z,7.77
2019-05-02T20:36:36.819Z,7.53
2019-05-02T20:39:08.413Z,7.07
2019-05-02T20:41:38.393Z,7.03
2019-05-02T20:44:08.451Z,7.75
2019-05-02T20:46:38.211Z,8.13
2019-05-02T20:49:08.031Z,8.53
2019-05-02T20:51:38.031Z,8.88
2019-05-02T20:54:07.850Z,8.90
2019-05-02T20:56:37.848Z,8.50
2019-05-02T20:59:07.831Z,8.60
2019-05-02T21:01:37.646Z,9.00
2019-05-02T21:04:07.322Z,7.85
2019-05-02T21:06:49.112Z,8.90
2019-05-02T21:09:27.364Z,8.00
2019-05-02T21:12:02.039Z,8.38
2019-05-02T21:14:31.855Z,7.37
2019-05-02T21:17:02.131Z,7.33
2019-05-02T21:19:32.383Z,7.80
2019-05-02T21:22:06.103Z,7.87
2019-05-02T21:24:35.757Z,7.70
2019-05-02T21:27:05.537Z,7.73
2019-05-02T21:29:35.202Z,8.20
2019-05-02T21:32:06.006Z,8.77
2019-05-02T21:34:35.753Z,7.00
2019-05-02T21:37:05.559Z,7.70
2019-05-02T21:39:35.294Z,7.65
2019-05-02T21:42:05.092Z,8.63
2019-05-02T21:44:34.825Z,6.87
2019-05-02T21:47:05.804Z,7.47
2019-05-02T21:49:44.384Z,8.17
2019-05-02T21:52:26.898Z,7.47
2019-05-02T21:55:03.768Z,8.35
2019-05-02T21:57:33.664Z,8.90
2019-05-02T22:00:04.288Z,8.33
2019-05-02T22:02:35.559Z,8.43
2019-05-02T22:05:06.114Z,8.30
2019-05-02T22:07:35.765Z,8.67
2019-05-02T22:10:06.292Z,9.70
2019-05-02T22:12:36.020Z,9.20
2019-05-02T22:15:06.675Z,9.87
2019-05-02T22:17:36.400Z,8.10
2019-05-02T22:20:06.294Z,6.97
2019-05-02T22:22:36.029Z,8.00
2019-05-02T22:25:06.129Z,8.93
2019-05-02T22:27:35.870Z,7.90
2019-05-02T22:30:06.107Z,8.15
2019-05-02T22:32:35.851Z,8.03
2019-05-02T22:35:07.059Z,7.50
2019-05-02T22:37:38.349Z,7.53
2019-05-02T22:40:09.667Z,8.90
2019-05-02T22:42:39.325Z,10.17
2019-05-02T22:45:09.440Z,12.10
2019-05-02T22:47:39.106Z,12.43
2019-05-02T22:50:09.324Z,12.80
2019-05-02T22:52:38.982Z,11.00
2019-05-02T22:55:09.161Z,12.78
2019-05-02T22:57:41.501Z,13.03
2019-05-02T23:00:10.405Z,13.30
2019-05-02T23:02:41.973Z,12.97
2019-05-02T23:05:12.395Z,13.13
2019-05-02T23:07:42.383Z,13.65
2019-05-02T23:10:12.764Z,13.10
2019-05-02T23:12:42.478Z,14.65
2019-05-02T23:15:12.682Z,14.63
2019-05-02T23:17:42.786Z,13.10
2019-05-02T23:20:12.836Z,14.68
2019-05-02T23:22:42.586Z,15.38
2019-05-02T23:25:32.199Z,14.83
2019-05-02T23:28:07.115Z,14.27
2019-05-02T23:30:36.792Z,15.23
2019-05-02T23:33:06.467Z,15.53
2019-05-02T23:35:36.137Z,15.43
2019-05-02T23:38:05.901Z,16.20
2019-05-02T23:40:35.559Z,17.40
2019-05-02T23:43:05.236Z,17.27
2019-05-02T23:45:35.528Z,17.30
2019-05-02T23:48:05.655Z,16.47
2019-05-02T23:50:35.338Z,16.23
2019-05-02T23:53:04.989Z,15.95
2019-05-02T23:55:34.654Z,15.43
2019-05-02T23:58:04.661Z,14.97
